createdAt,value
2022-12-12T00:02:44.048Z,74.34
2022-12-12T00:07:46.011Z,74.42
2022-12-12T00:12:48.193Z,74.58
2022-12-12T00:17:50.226Z,74.37
2022-12-12T00:22:52.084Z,74.50
2022-12-12T00:27:54.030Z,74.56
2022-12-12T00:32:55.871Z,74.80
2022-12-12T00:37:57.686Z,74.71
2022-12-12T00:42:59.432Z,74.63
2022-12-12T00:48:01.185Z,74.70
2022-12-12T00:53:03.217Z,74.69
2022-12-12T00:58:05.232Z,74.53
2022-12-12T01:03:07.441Z,74.63
2022-12-12T01:08:09.406Z,74.79
2022-12-12T01:13:11.331Z,74.77
2022-12-12T01:18:14.262Z,74.63
2022-12-12T01:23:16.161Z,74.71
2022-12-12T01:28:17.961Z,74.77
2022-12-12T01:33:19.897Z,74.74
2022-12-12T01:38:22.143Z,74.84
2022-12-12T01:43:25.571Z,74.81
2022-12-12T01:48:45.455Z,74.85
2022-12-12T01:53:50.185Z,75.05
2022-12-12T01:58:54.992Z,74.95
2022-12-12T02:03:59.264Z,74.79
2022-12-12T02:09:04.342Z,74.70
2022-12-12T02:14:06.225Z,74.81
2022-12-12T02:19:44.160Z,74.84
2022-12-12T02:25:12.564Z,74.97
2022-12-12T02:30:38.126Z,75.20
2022-12-12T02:36:00.146Z,75.02
2022-12-12T02:41:25.200Z,75.21
2022-12-12T02:46:41.573Z,75.26
2022-12-12T02:51:46.133Z,75.32
2022-12-12T02:56:50.669Z,75.25
2022-12-12T03:01:58.476Z,75.47
2022-12-12T03:07:35.924Z,75.45
2022-12-12T03:12:49.083Z,75.56
2022-12-12T03:18:05.718Z,75.46
2022-12-12T03:23:14.193Z,75.58
2022-12-12T03:28:31.070Z,75.63
2022-12-12T03:33:55.188Z,75.63
2022-12-12T03:39:02.045Z,75.64
2022-12-12T03:44:41.742Z,75.83
2022-12-12T03:49:50.341Z,75.85
2022-12-12T03:55:21.580Z,75.77
2022-12-12T04:00:23.538Z,75.89
2022-12-12T04:06:01.184Z,76.07
2022-12-12T04:11:39.308Z,76.09
2022-12-12T04:16:46.519Z,76.13
2022-12-12T04:22:18.138Z,75.97
2022-12-12T04:27:30.811Z,76.06
2022-12-12T04:32:37.731Z,76.14
2022-12-12T04:37:47.465Z,76.08
2022-12-12T04:43:13.897Z,76.22
2022-12-12T04:48:22.063Z,76.38
2022-12-12T04:53:33.404Z,76.50
2022-12-12T04:58:37.790Z,76.28
2022-12-12T05:03:49.382Z,76.29
2022-12-12T05:08:54.824Z,76.23
2022-12-12T05:13:56.661Z,76.44
2022-12-12T05:19:01.894Z,76.36
2022-12-12T05:24:03.986Z,76.69
2022-12-12T05:29:07.688Z,76.49
2022-12-12T05:34:10.329Z,76.65
2022-12-12T05:39:12.091Z,76.64
2022-12-12T05:44:13.981Z,76.61
2022-12-12T05:49:15.825Z,76.68
2022-12-12T05:54:17.642Z,76.71
2022-12-12T05:59:19.491Z,76.75
2022-12-12T06:04:21.336Z,76.79
2022-12-12T06:09:23.493Z,76.87
2022-12-12T06:14:26.411Z,76.94
2022-12-12T06:19:28.231Z,76.92
2022-12-12T06:24:30.225Z,76.96
2022-12-12T06:29:32.554Z,77.02
2022-12-12T06:34:34.461Z,76.97
2022-12-12T06:39:38.005Z,76.97
2022-12-12T06:44:39.809Z,77.07
2022-12-12T06:49:41.649Z,77.06
2022-12-12T06:54:43.485Z,77.09
2022-12-12T06:59:45.323Z,77.05
2022-12-12T07:04:47.175Z,76.97
2022-12-12T07:09:49.109Z,77.23
2022-12-12T07:14:51.029Z,77.12
2022-12-12T07:19:53.315Z,77.23
2022-12-12T07:24:55.405Z,77.04
2022-12-12T07:29:57.416Z,77.28
2022-12-12T07:34:59.271Z,77.07
2022-12-12T07:40:01.182Z,76.82
2022-12-12T07:45:03.063Z,77.22
2022-12-12T07:50:05.199Z,77.03
2022-12-12T07:55:07.587Z,77.25
2022-12-12T08:00:13.579Z,76.99
2022-12-12T08:05:16.528Z,77.14
2022-12-12T08:10:18.529Z,76.99
2022-12-12T08:15:20.781Z,76.85
2022-12-12T08:20:23.095Z,76.96
2022-12-12T08:25:24.927Z,77.18
2022-12-12T08:30:28.043Z,76.98
2022-12-12T08:35:31.785Z,76.78
2022-12-12T08:40:37.297Z,76.84
2022-12-12T08:45:39.475Z,76.67
2022-12-12T08:50:41.892Z,76.68
2022-12-12T08:55:43.657Z,76.76
2022-12-12T09:00:45.504Z,76.60
2022-12-12T09:05:47.642Z,76.64
2022-12-12T09:10:50.511Z,76.65
2022-12-12T09:15:52.987Z,76.58
2022-12-12T09:20:56.843Z,76.39
2022-12-12T09:25:59.134Z,76.25
2022-12-12T09:31:03.386Z,76.57
2022-12-12T09:36:08.145Z,76.46
2022-12-12T09:41:09.902Z,76.37
2022-12-12T09:46:32.646Z,76.21
2022-12-12T09:51:36.070Z,76.03
2022-12-12T09:56:57.462Z,75.79
2022-12-12T10:02:26.259Z,75.83
2022-12-12T10:07:51.672Z,75.86
2022-12-12T10:12:58.547Z,76.24
2022-12-12T10:18:05.358Z,75.98
2022-12-12T10:23:40.050Z,75.82
2022-12-12T10:28:42.075Z,75.55
2022-12-12T10:34:16.260Z,75.53
2022-12-12T10:39:32.992Z,75.55
2022-12-12T10:45:19.603Z,75.46
2022-12-12T10:50:37.670Z,75.60
2022-12-12T10:55:45.303Z,75.56
2022-12-12T11:00:49.605Z,75.30
2022-12-12T11:05:51.486Z,75.45
2022-12-12T11:11:24.829Z,75.39
2022-12-12T11:16:40.788Z,75.30
2022-12-12T11:21:43.282Z,75.39
2022-12-12T11:27:04.466Z,75.65
2022-12-12T11:32:14.565Z,75.71
2022-12-12T11:37:19.196Z,75.74
2022-12-12T11:42:26.687Z,75.63
2022-12-12T11:47:41.017Z,75.62
2022-12-12T11:52:43.016Z,75.93
2022-12-12T11:57:47.687Z,75.71
2022-12-12T12:03:11.054Z,75.74
2022-12-12T12:08:28.938Z,76.04
2022-12-12T12:13:45.823Z,75.87
2022-12-12T12:19:16.275Z,76.04
2022-12-12T12:24:52.105Z,76.07
2022-12-12T12:30:13.705Z,76.19
2022-12-12T12:35:29.399Z,76.29
2022-12-12T12:40:43.321Z,76.13
2022-12-12T12:45:57.750Z,76.20
2022-12-12T12:51:04.725Z,76.21
2022-12-12T12:56:22.286Z,76.12
2022-12-12T13:01:42.485Z,76.30
2022-12-12T13:07:25.679Z,76.24
2022-12-12T13:12:44.501Z,76.41
2022-12-12T13:17:48.995Z,76.38
2022-12-12T13:23:21.777Z,76.35
2022-12-12T13:28:35.957Z,76.32
2022-12-12T13:33:44.557Z,76.62
2022-12-12T13:38:53.583Z,76.69
2022-12-12T13:43:57.950Z,76.61
2022-12-12T13:49:16.887Z,76.70
2022-12-12T13:54:38.598Z,76.90
2022-12-12T13:59:58.372Z,76.86
2022-12-12T14:05:35.624Z,76.84
2022-12-12T14:10:43.651Z,76.66
2022-12-12T14:15:48.358Z,76.90
2022-12-12T14:20:56.266Z,76.82
2022-12-12T14:26:00.006Z,76.66
2022-12-12T14:31:17.201Z,76.52
2022-12-12T14:36:37.663Z,76.46
2022-12-12T14:41:42.998Z,75.99
2022-12-12T14:46:44.781Z,76.21
2022-12-12T14:51:50.677Z,76.13
2022-12-12T14:56:59.178Z,75.97
2022-12-12T15:02:15.984Z,76.07
2022-12-12T15:07:28.083Z,76.02
2022-12-12T15:12:34.969Z,75.93
2022-12-12T15:17:46.104Z,75.77
2022-12-12T15:22:57.392Z,75.63
2022-12-12T15:27:59.564Z,75.49
2022-12-12T15:33:03.413Z,75.48
2022-12-12T15:38:13.157Z,74.98
2022-12-12T15:43:24.863Z,75.20
2022-12-12T15:48:27.605Z,75.34
2022-12-12T15:53:35.579Z,75.13
2022-12-12T15:58:43.686Z,75.24
2022-12-12T16:04:01.752Z,75.15
2022-12-12T16:09:18.777Z,75.15
2022-12-12T16:14:42.450Z,75.10
2022-12-12T16:19:57.703Z,75.11
2022-12-12T16:25:23.394Z,75.18
2022-12-12T16:35:28.690Z,75.12
2022-12-12T16:40:30.717Z,75.18
2022-12-12T16:45:32.535Z,75.10
2022-12-12T16:50:35.426Z,75.37
2022-12-12T16:55:39.686Z,75.14
2022-12-12T17:00:41.595Z,74.95
2022-12-12T17:05:45.022Z,74.83
2022-12-12T17:10:48.488Z,74.83
2022-12-12T17:15:51.906Z,74.95
2022-12-12T17:20:53.806Z,75.01
2022-12-12T17:26:02.449Z,75.02
2022-12-12T17:31:09.667Z,75.08
2022-12-12T17:36:13.189Z,75.02
2022-12-12T17:41:15.043Z,75.19
2022-12-12T17:46:17.856Z,75.13
2022-12-12T17:51:23.972Z,74.97
2022-12-12T17:56:26.796Z,74.89
2022-12-12T18:01:33.621Z,74.84
2022-12-12T18:06:36.135Z,74.81
2022-12-12T18:11:38.970Z,74.76
2022-12-12T18:16:44.973Z,74.57
2022-12-12T18:22:02.843Z,74.74
2022-12-12T18:27:04.803Z,74.53
2022-12-12T18:32:06.788Z,74.53
2022-12-12T18:37:08.847Z,74.68
2022-12-12T18:42:12.013Z,74.53
2022-12-12T18:47:13.930Z,74.45
2022-12-12T18:52:16.112Z,74.49
2022-12-12T18:57:18.403Z,74.36
2022-12-12T19:02:20.369Z,74.42
2022-12-12T19:07:22.370Z,74.66
2022-12-12T19:12:24.357Z,74.64
2022-12-12T19:17:27.020Z,74.63
2022-12-12T19:22:44.946Z,74.62
2022-12-12T19:27:48.641Z,74.79
2022-12-12T19:32:50.535Z,74.59
2022-12-12T19:37:52.659Z,74.65
2022-12-12T19:42:54.525Z,74.66
2022-12-12T19:47:56.574Z,74.68
2022-12-12T19:53:01.457Z,74.69
2022-12-12T19:58:04.698Z,74.76
2022-12-12T20:03:06.705Z,74.73
2022-12-12T20:08:08.686Z,74.62
2022-12-12T20:13:11.696Z,74.69
2022-12-12T20:18:16.330Z,74.75
2022-12-12T20:23:18.651Z,74.68
2022-12-12T20:28:20.552Z,74.55
2022-12-12T20:33:22.419Z,74.60
2022-12-12T20:38:25.310Z,74.65
2022-12-12T20:43:28.602Z,74.47
2022-12-12T20:48:30.434Z,74.59
2022-12-12T20:53:36.388Z,74.75
2022-12-12T20:58:39.674Z,74.64
2022-12-12T21:03:43.115Z,74.58
2022-12-12T21:08:46.238Z,74.74
2022-12-12T21:13:50.815Z,74.55
2022-12-12T21:18:55.047Z,74.55
2022-12-12T21:23:58.023Z,74.53
2022-12-12T21:29:02.008Z,74.60
2022-12-12T21:34:06.147Z,74.73
2022-12-12T21:39:08.646Z,74.57
2022-12-12T21:44:10.706Z,74.53
2022-12-12T21:49:28.260Z,74.57
2022-12-12T21:54:30.763Z,74.68
2022-12-12T21:59:32.673Z,74.67
2022-12-12T22:04:34.515Z,74.63
2022-12-12T22:09:36.378Z,74.57
2022-12-12T22:14:38.239Z,74.65
2022-12-12T22:19:40.048Z,74.39
2022-12-12T22:24:41.837Z,74.42
2022-12-12T22:29:43.689Z,74.67
2022-12-12T22:34:45.545Z,74.37
2022-12-12T22:39:47.443Z,74.44
2022-12-12T22:44:49.205Z,74.49
2022-12-12T22:49:52.664Z,74.41
2022-12-12T22:54:54.933Z,74.35
2022-12-12T22:59:56.920Z,74.44
2022-12-12T23:04:58.854Z,74.44
2022-12-12T23:10:02.446Z,74.42
2022-12-12T23:15:05.031Z,74.52
2022-12-12T23:20:07.998Z,74.38
2022-12-12T23:25:09.746Z,74.48
2022-12-12T23:30:11.875Z,74.53
2022-12-12T23:35:14.192Z,74.25
2022-12-12T23:40:16.363Z,74.30
2022-12-12T23:45:18.366Z,74.25
2022-12-12T23:50:20.226Z,74.25
2022-12-12T23:55:22.107Z,74.28
